sensor_id;sensor_type;location;lat;lon;timestamp;P1;durP1;ratioP1;P2;durP2;ratioP2
52057;SDS011;38063;53.210;6.504;2023-04-24T00:00:03;6.00;;;4.75;;
52057;SDS011;38063;53.210;6.504;2023-04-24T00:02:37;6.10;;;4.10;;
52057;SDS011;38063;53.210;6.504;2023-04-24T00:05:06;6.13;;;4.50;;
52057;SDS011;38063;53.210;6.504;2023-04-24T00:07:32;5.85;;;4.20;;
52057;SDS011;38063;53.210;6.504;2023-04-24T00:10:01;6.72;;;3.90;;
52057;SDS011;38063;53.210;6.504;2023-04-24T00:12:27;5.47;;;4.20;;
52057;SDS011;38063;53.210;6.504;2023-04-24T00:14:53;5.05;;;3.92;;
52057;SDS011;38063;53.210;6.504;2023-04-24T00:17:18;7.30;;;4.75;;
52057;SDS011;38063;53.210;6.504;2023-04-24T00:19:47;7.85;;;4.70;;
52057;SDS011;38063;53.210;6.504;2023-04-24T00:22:13;5.47;;;4.60;;
52057;SDS011;38063;53.210;6.504;2023-04-24T00:24:39;7.88;;;4.43;;
52057;SDS011;38063;53.210;6.504;2023-04-24T00:27:05;5.03;;;4.30;;
52057;SDS011;38063;53.210;6.504;2023-04-24T00:29:31;9.30;;;4.80;;
52057;SDS011;38063;53.210;6.504;2023-04-24T00:31:57;7.00;;;3.92;;
52057;SDS011;38063;53.210;6.504;2023-04-24T00:34:22;5.28;;;4.10;;
52057;SDS011;38063;53.210;6.504;2023-04-24T00:36:48;3.58;;;3.15;;
52057;SDS011;38063;53.210;6.504;2023-04-24T00:39:17;4.88;;;3.20;;
52057;SDS011;38063;53.210;6.504;2023-04-24T00:41:43;3.20;;;2.40;;
52057;SDS011;38063;53.210;6.504;2023-04-24T00:44:10;3.90;;;2.80;;
52057;SDS011;38063;53.210;6.504;2023-04-24T00:46:36;3.88;;;2.70;;
52057;SDS011;38063;53.210;6.504;2023-04-24T00:49:02;3.50;;;2.63;;
52057;SDS011;38063;53.210;6.504;2023-04-24T00:51:29;3.60;;;2.60;;
52057;SDS011;38063;53.210;6.504;2023-04-24T00:53:55;5.35;;;2.88;;
52057;SDS011;38063;53.210;6.504;2023-04-24T00:56:21;2.80;;;2.42;;
52057;SDS011;38063;53.210;6.504;2023-04-24T00:58:48;3.55;;;2.20;;
52057;SDS011;38063;53.210;6.504;2023-04-24T01:01:14;3.55;;;2.40;;
52057;SDS011;38063;53.210;6.504;2023-04-24T01:03:40;2.33;;;2.05;;
52057;SDS011;38063;53.210;6.504;2023-04-24T01:06:06;3.05;;;1.92;;
52057;SDS011;38063;53.210;6.504;2023-04-24T01:08:32;2.25;;;2.00;;
52057;SDS011;38063;53.210;6.504;2023-04-24T01:10:59;1.98;;;1.75;;
52057;SDS011;38063;53.210;6.504;2023-04-24T01:13:27;3.65;;;1.70;;
52057;SDS011;38063;53.210;6.504;2023-04-24T01:15:53;1.88;;;1.50;;
52057;SDS011;38063;53.210;6.504;2023-04-24T01:18:19;1.77;;;1.38;;
52057;SDS011;38063;53.210;6.504;2023-04-24T01:20:46;2.05;;;1.40;;
52057;SDS011;38063;53.210;6.504;2023-04-24T01:23:14;2.10;;;1.45;;
52057;SDS011;38063;53.210;6.504;2023-04-24T01:25:41;3.42;;;1.58;;
52057;SDS011;38063;53.210;6.504;2023-04-24T01:28:07;1.75;;;1.30;;
52057;SDS011;38063;53.210;6.504;2023-04-24T01:30:33;1.60;;;1.40;;
52057;SDS011;38063;53.210;6.504;2023-04-24T01:32:59;1.60;;;1.42;;
52057;SDS011;38063;53.210;6.504;2023-04-24T01:35:25;6.45;;;1.52;;
52057;SDS011;38063;53.210;6.504;2023-04-24T01:37:51;2.42;;;1.52;;
52057;SDS011;38063;53.210;6.504;2023-04-24T01:40:17;1.90;;;1.55;;
52057;SDS011;38063;53.210;6.504;2023-04-24T01:42:42;2.30;;;1.70;;
52057;SDS011;38063;53.210;6.504;2023-04-24T01:45:10;2.13;;;1.67;;
52057;SDS011;38063;53.210;6.504;2023-04-24T01:47:38;2.83;;;1.77;;
52057;SDS011;38063;53.210;6.504;2023-04-24T01:50:04;2.30;;;1.70;;
52057;SDS011;38063;53.210;6.504;2023-04-24T01:52:30;3.10;;;1.60;;
52057;SDS011;38063;53.210;6.504;2023-04-24T01:55:01;2.35;;;1.90;;
52057;SDS011;38063;53.210;6.504;2023-04-24T01:57:27;5.68;;;1.73;;
52057;SDS011;38063;53.210;6.504;2023-04-24T01:59:55;2.45;;;2.10;;
52057;SDS011;38063;53.210;6.504;2023-04-24T02:02:21;2.25;;;2.05;;
52057;SDS011;38063;53.210;6.504;2023-04-24T02:04:48;2.97;;;2.38;;
52057;SDS011;38063;53.210;6.504;2023-04-24T02:07:17;2.72;;;2.08;;
52057;SDS011;38063;53.210;6.504;2023-04-24T02:09:43;4.55;;;2.20;;
52057;SDS011;38063;53.210;6.504;2023-04-24T02:12:08;2.65;;;2.35;;
52057;SDS011;38063;53.210;6.504;2023-04-24T02:14:34;3.88;;;2.67;;
52057;SDS011;38063;53.210;6.504;2023-04-24T02:17:00;2.88;;;2.38;;
52057;SDS011;38063;53.210;6.504;2023-04-24T02:19:25;3.20;;;2.90;;
52057;SDS011;38063;53.210;6.504;2023-04-24T02:21:51;4.03;;;3.25;;
52057;SDS011;38063;53.210;6.504;2023-04-24T02:24:17;3.03;;;2.72;;
52057;SDS011;38063;53.210;6.504;2023-04-24T02:26:43;4.57;;;3.05;;
52057;SDS011;38063;53.210;6.504;2023-04-24T02:29:08;3.20;;;2.85;;
52057;SDS011;38063;53.210;6.504;2023-04-24T02:31:34;4.03;;;3.63;;
52057;SDS011;38063;53.210;6.504;2023-04-24T02:34:00;7.00;;;3.85;;
52057;SDS011;38063;53.210;6.504;2023-04-24T02:36:26;5.30;;;3.67;;
52057;SDS011;38063;53.210;6.504;2023-04-24T02:38:51;4.90;;;4.40;;
52057;SDS011;38063;53.210;6.504;2023-04-24T02:41:17;4.93;;;4.45;;
52057;SDS011;38063;53.210;6.504;2023-04-24T02:43:42;5.40;;;4.75;;
52057;SDS011;38063;53.210;6.504;2023-04-24T02:46:08;5.20;;;4.70;;
52057;SDS011;38063;53.210;6.504;2023-04-24T02:48:34;5.50;;;4.90;;
52057;SDS011;38063;53.210;6.504;2023-04-24T02:50:59;6.05;;;5.30;;
52057;SDS011;38063;53.210;6.504;2023-04-24T02:53:25;5.72;;;5.00;;
52057;SDS011;38063;53.210;6.504;2023-04-24T02:55:51;5.25;;;4.75;;
52057;SDS011;38063;53.210;6.504;2023-04-24T02:58:16;5.80;;;5.22;;
52057;SDS011;38063;53.210;6.504;2023-04-24T03:00:44;6.80;;;6.10;;
52057;SDS011;38063;53.210;6.504;2023-04-24T03:03:11;9.80;;;6.30;;
52057;SDS011;38063;53.210;6.504;2023-04-24T03:05:36;7.93;;;5.85;;
52057;SDS011;38063;53.210;6.504;2023-04-24T03:08:02;7.57;;;6.10;;
52057;SDS011;38063;53.210;6.504;2023-04-24T03:10:28;7.40;;;6.43;;
52057;SDS011;38063;53.210;6.504;2023-04-24T03:12:54;6.78;;;5.90;;
52057;SDS011;38063;53.210;6.504;2023-04-24T03:15:20;8.00;;;6.35;;
52057;SDS011;38063;53.210;6.504;2023-04-24T03:17:45;8.10;;;6.75;;
52057;SDS011;38063;53.210;6.504;2023-04-24T03:20:11;8.05;;;6.57;;
52057;SDS011;38063;53.210;6.504;2023-04-24T03:22:37;11.55;;;7.28;;
52057;SDS011;38063;53.210;6.504;2023-04-24T03:25:02;8.45;;;7.05;;
52057;SDS011;38063;53.210;6.504;2023-04-24T03:27:28;9.35;;;7.43;;
52057;SDS011;38063;53.210;6.504;2023-04-24T03:29:55;9.40;;;7.70;;
52057;SDS011;38063;53.210;6.504;2023-04-24T03:32:21;10.40;;;8.85;;
52057;SDS011;38063;53.210;6.504;2023-04-24T03:34:48;11.30;;;8.50;;
52057;SDS011;38063;53.210;6.504;2023-04-24T03:37:14;11.68;;;8.82;;
52057;SDS011;38063;53.210;6.504;2023-04-24T03:39:43;10.30;;;8.10;;
52057;SDS011;38063;53.210;6.504;2023-04-24T03:42:08;11.48;;;8.32;;
52057;SDS011;38063;53.210;6.504;2023-04-24T03:44:35;11.63;;;8.73;;
52057;SDS011;38063;53.210;6.504;2023-04-24T03:47:00;12.55;;;9.90;;
52057;SDS011;38063;53.210;6.504;2023-04-24T03:49:26;11.50;;;9.38;;
52057;SDS011;38063;53.210;6.504;2023-04-24T03:51:52;11.38;;;9.90;;
52057;SDS011;38063;53.210;6.504;2023-04-24T03:54:18;13.48;;;11.05;;
52057;SDS011;38063;53.210;6.504;2023-04-24T03:56:44;13.65;;;10.77;;
52057;SDS011;38063;53.210;6.504;2023-04-24T03:59:10;14.68;;;12.07;;
52057;SDS011;38063;53.210;6.504;2023-04-24T04:01:36;15.05;;;12.05;;
52057;SDS011;38063;53.210;6.504;2023-04-24T04:04:05;13.73;;;12.07;;
52057;SDS011;38063;53.210;6.504;2023-04-24T04:06:31;14.65;;;12.40;;
52057;SDS011;38063;53.210;6.504;2023-04-24T04:08:57;14.70;;;12.18;;
52057;SDS011;38063;53.210;6.504;2023-04-24T04:11:24;15.25;;;12.35;;
52057;SDS011;38063;53.210;6.504;2023-04-24T04:13:49;17.90;;;13.23;;
52057;SDS011;38063;53.210;6.504;2023-04-24T04:16:15;15.38;;;13.57;;
52057;SDS011;38063;53.210;6.504;2023-04-24T04:18:42;16.55;;;12.63;;
52057;SDS011;38063;53.210;6.504;2023-04-24T04:21:09;15.15;;;12.07;;
52057;SDS011;38063;53.210;6.504;2023-04-24T04:23:35;14.27;;;12.27;;
52057;SDS011;38063;53.210;6.504;2023-04-24T04:26:01;14.30;;;11.98;;
52057;SDS011;38063;53.210;6.504;2023-04-24T04:28:28;14.88;;;11.60;;
52057;SDS011;38063;53.210;6.504;2023-04-24T04:30:55;13.35;;;11.35;;
52057;SDS011;38063;53.210;6.504;2023-04-24T04:33:22;12.55;;;11.25;;
52057;SDS011;38063;53.210;6.504;2023-04-24T04:35:49;12.20;;;10.90;;
52057;SDS011;38063;53.210;6.504;2023-04-24T04:38:17;11.43;;;10.23;;
52057;SDS011;38063;53.210;6.504;2023-04-24T04:40:43;11.73;;;9.95;;
52057;SDS011;38063;53.210;6.504;2023-04-24T04:43:09;12.98;;;10.43;;
52057;SDS011;38063;53.210;6.504;2023-04-24T04:45:36;11.20;;;10.00;;
52057;SDS011;38063;53.210;6.504;2023-04-24T04:48:04;11.50;;;10.38;;
52057;SDS011;38063;53.210;6.504;2023-04-24T04:50:31;12.88;;;10.75;;
52057;SDS011;38063;53.210;6.504;2023-04-24T04:52:56;9.50;;;8.30;;
52057;SDS011;38063;53.210;6.504;2023-04-24T04:55:22;8.80;;;6.82;;
52057;SDS011;38063;53.210;6.504;2023-04-24T04:57:48;7.30;;;5.88;;
52057;SDS011;38063;53.210;6.504;2023-04-24T05:00:13;6.50;;;5.18;;
52057;SDS011;38063;53.210;6.504;2023-04-24T05:02:39;4.82;;;3.30;;
52057;SDS011;38063;53.210;6.504;2023-04-24T05:05:05;3.55;;;2.97;;
52057;SDS011;38063;53.210;6.504;2023-04-24T05:07:32;5.20;;;3.67;;
52057;SDS011;38063;53.210;6.504;2023-04-24T05:09:58;4.13;;;3.10;;
52057;SDS011;38063;53.210;6.504;2023-04-24T05:12:23;4.50;;;3.10;;
52057;SDS011;38063;53.210;6.504;2023-04-24T05:14:49;5.40;;;3.65;;
52057;SDS011;38063;53.210;6.504;2023-04-24T05:17:15;4.85;;;3.50;;
52057;SDS011;38063;53.210;6.504;2023-04-24T05:19:41;5.25;;;3.72;;
52057;SDS011;38063;53.210;6.504;2023-04-24T05:22:07;5.15;;;3.83;;
52057;SDS011;38063;53.210;6.504;2023-04-24T05:24:33;3.33;;;2.95;;
52057;SDS011;38063;53.210;6.504;2023-04-24T05:26:59;4.90;;;3.97;;
52057;SDS011;38063;53.210;6.504;2023-04-24T05:29:25;3.88;;;2.60;;
52057;SDS011;38063;53.210;6.504;2023-04-24T05:31:51;4.32;;;3.10;;
52057;SDS011;38063;53.210;6.504;2023-04-24T05:34:17;5.32;;;3.00;;
52057;SDS011;38063;53.210;6.504;2023-04-24T05:36:43;5.22;;;3.70;;
52057;SDS011;38063;53.210;6.504;2023-04-24T05:39:08;5.32;;;3.90;;
52057;SDS011;38063;53.210;6.504;2023-04-24T05:41:34;5.78;;;3.90;;
52057;SDS011;38063;53.210;6.504;2023-04-24T05:44:00;4.25;;;3.55;;
52057;SDS011;38063;53.210;6.504;2023-04-24T05:46:26;6.57;;;4.07;;
52057;SDS011;38063;53.210;6.504;2023-04-24T05:48:51;6.85;;;3.40;;
52057;SDS011;38063;53.210;6.504;2023-04-24T05:51:17;3.90;;;2.72;;
52057;SDS011;38063;53.210;6.504;2023-04-24T05:53:43;4.68;;;2.80;;
52057;SDS011;38063;53.210;6.504;2023-04-24T05:56:08;3.95;;;2.92;;
52057;SDS011;38063;53.210;6.504;2023-04-24T05:58:34;5.03;;;3.05;;
52057;SDS011;38063;53.210;6.504;2023-04-24T06:01:00;4.13;;;3.05;;
52057;SDS011;38063;53.210;6.504;2023-04-24T06:03:26;4.32;;;3.30;;
52057;SDS011;38063;53.210;6.504;2023-04-24T06:05:52;4.20;;;3.30;;
52057;SDS011;38063;53.210;6.504;2023-04-24T06:08:18;6.07;;;3.38;;
52057;SDS011;38063;53.210;6.504;2023-04-24T06:10:44;6.63;;;3.53;;
52057;SDS011;38063;53.210;6.504;2023-04-24T06:13:10;5.70;;;3.70;;
52057;SDS011;38063;53.210;6.504;2023-04-24T06:15:36;7.10;;;3.92;;
52057;SDS011;38063;53.210;6.504;2023-04-24T06:18:02;7.68;;;4.18;;
52057;SDS011;38063;53.210;6.504;2023-04-24T06:20:28;7.25;;;4.45;;
52057;SDS011;38063;53.210;6.504;2023-04-24T06:22:54;7.18;;;4.82;;
52057;SDS011;38063;53.210;6.504;2023-04-24T06:25:20;8.85;;;5.70;;
52057;SDS011;38063;53.210;6.504;2023-04-24T06:27:45;7.80;;;5.13;;
52057;SDS011;38063;53.210;6.504;2023-04-24T06:30:11;13.10;;;6.18;;
52057;SDS011;38063;53.210;6.504;2023-04-24T06:32:37;11.45;;;5.68;;
52057;SDS011;38063;53.210;6.504;2023-04-24T06:35:03;10.32;;;5.65;;
52057;SDS011;38063;53.210;6.504;2023-04-24T06:37:29;8.48;;;6.25;;
52057;SDS011;38063;53.210;6.504;2023-04-24T06:39:55;8.85;;;5.82;;
52057;SDS011;38063;53.210;6.504;2023-04-24T06:42:21;8.50;;;6.45;;
52057;SDS011;38063;53.210;6.504;2023-04-24T06:44:47;9.52;;;5.47;;
52057;SDS011;38063;53.210;6.504;2023-04-24T06:47:12;10.65;;;5.28;;
52057;SDS011;38063;53.210;6.504;2023-04-24T06:49:41;4.65;;;3.90;;
52057;SDS011;38063;53.210;6.504;2023-04-24T06:52:07;6.28;;;3.85;;
52057;SDS011;38063;53.210;6.504;2023-04-24T06:54:33;6.88;;;2.90;;
52057;SDS011;38063;53.210;6.504;2023-04-24T06:56:59;5.20;;;2.67;;
52057;SDS011;38063;53.210;6.504;2023-04-24T06:59:28;3.78;;;2.28;;
52057;SDS011;38063;53.210;6.504;2023-04-24T07:01:54;4.15;;;2.38;;
52057;SDS011;38063;53.210;6.504;2023-04-24T07:04:20;4.20;;;2.22;;
52057;SDS011;38063;53.210;6.504;2023-04-24T07:06:46;4.65;;;2.20;;
52057;SDS011;38063;53.210;6.504;2023-04-24T07:09:12;5.53;;;2.40;;
52057;SDS011;38063;53.210;6.504;2023-04-24T07:11:39;5.00;;;2.67;;
52057;SDS011;38063;53.210;6.504;2023-04-24T07:14:05;2.40;;;1.80;;
52057;SDS011;38063;53.210;6.504;2023-04-24T07:16:32;4.43;;;2.30;;
52057;SDS011;38063;53.210;6.504;2023-04-24T07:18:57;7.97;;;3.28;;
52057;SDS011;38063;53.210;6.504;2023-04-24T07:21:23;4.28;;;2.22;;
52057;SDS011;38063;53.210;6.504;2023-04-24T07:23:49;3.65;;;2.42;;
52057;SDS011;38063;53.210;6.504;2023-04-24T07:26:15;8.48;;;3.40;;
52057;SDS011;38063;53.210;6.504;2023-04-24T07:28:41;4.22;;;2.28;;
52057;SDS011;38063;53.210;6.504;2023-04-24T07:31:07;6.13;;;2.50;;
52057;SDS011;38063;53.210;6.504;2023-04-24T07:33:33;6.45;;;2.78;;
52057;SDS011;38063;53.210;6.504;2023-04-24T07:35:59;6.57;;;3.20;;
52057;SDS011;38063;53.210;6.504;2023-04-24T07:38:25;5.53;;;2.55;;
52057;SDS011;38063;53.210;6.504;2023-04-24T07:40:51;6.82;;;2.63;;
52057;SDS011;38063;53.210;6.504;2023-04-24T07:43:17;8.20;;;2.78;;
52057;SDS011;38063;53.210;6.504;2023-04-24T07:45:43;7.32;;;2.45;;
52057;SDS011;38063;53.210;6.504;2023-04-24T07:48:09;6.70;;;2.63;;
52057;SDS011;38063;53.210;6.504;2023-04-24T07:50:35;6.85;;;2.92;;
52057;SDS011;38063;53.210;6.504;2023-04-24T07:53:01;10.80;;;3.90;;
52057;SDS011;38063;53.210;6.504;2023-04-24T07:55:27;8.75;;;4.40;;
52057;SDS011;38063;53.210;6.504;2023-04-24T07:57:53;9.38;;;3.83;;
52057;SDS011;38063;53.210;6.504;2023-04-24T08:00:19;6.72;;;4.32;;
52057;SDS011;38063;53.210;6.504;2023-04-24T08:02:45;10.25;;;5.72;;
52057;SDS011;38063;53.210;6.504;2023-04-24T08:05:10;19.83;;;7.68;;
52057;SDS011;38063;53.210;6.504;2023-04-24T08:07:36;15.38;;;8.15;;
52057;SDS011;38063;53.210;6.504;2023-04-24T08:10:03;15.18;;;8.68;;
52057;SDS011;38063;53.210;6.504;2023-04-24T08:12:29;16.08;;;10.27;;
52057;SDS011;38063;53.210;6.504;2023-04-24T08:14:55;20.17;;;11.05;;
52057;SDS011;38063;53.210;6.504;2023-04-24T08:17:20;22.73;;;12.15;;
52057;SDS011;38063;53.210;6.504;2023-04-24T08:19:46;22.80;;;11.70;;
52057;SDS011;38063;53.210;6.504;2023-04-24T08:22:16;26.17;;;12.57;;
52057;SDS011;38063;53.210;6.504;2023-04-24T08:24:42;23.48;;;12.68;;
52057;SDS011;38063;53.210;6.504;2023-04-24T08:27:08;25.48;;;11.52;;
52057;SDS011;38063;53.210;6.504;2023-04-24T08:29:35;22.80;;;11.18;;
52057;SDS011;38063;53.210;6.504;2023-04-24T08:32:01;19.40;;;11.52;;
52057;SDS011;38063;53.210;6.504;2023-04-24T08:34:27;24.25;;;12.52;;
52057;SDS011;38063;53.210;6.504;2023-04-24T08:36:53;22.70;;;11.80;;
52057;SDS011;38063;53.210;6.504;2023-04-24T08:39:19;21.20;;;10.45;;
52057;SDS011;38063;53.210;6.504;2023-04-24T08:41:45;17.95;;;9.95;;
52057;SDS011;38063;53.210;6.504;2023-04-24T08:44:13;19.27;;;9.73;;
52057;SDS011;38063;53.210;6.504;2023-04-24T08:46:42;23.45;;;10.07;;
52057;SDS011;38063;53.210;6.504;2023-04-24T08:49:10;25.63;;;10.32;;
52057;SDS011;38063;53.210;6.504;2023-04-24T08:51:37;19.15;;;9.80;;
52057;SDS011;38063;53.210;6.504;2023-04-24T08:54:04;16.67;;;10.48;;
52057;SDS011;38063;53.210;6.504;2023-04-24T08:56:30;22.63;;;10.43;;
52057;SDS011;38063;53.210;6.504;2023-04-24T08:58:59;17.33;;;9.95;;
52057;SDS011;38063;53.210;6.504;2023-04-24T09:01:25;21.02;;;10.38;;
52057;SDS011;38063;53.210;6.504;2023-04-24T09:03:51;19.45;;;10.68;;
52057;SDS011;38063;53.210;6.504;2023-04-24T09:06:19;16.45;;;10.05;;
52057;SDS011;38063;53.210;6.504;2023-04-24T09:08:46;17.70;;;10.02;;
52057;SDS011;38063;53.210;6.504;2023-04-24T09:11:13;24.38;;;9.88;;
52057;SDS011;38063;53.210;6.504;2023-04-24T09:13:39;17.15;;;9.07;;
52057;SDS011;38063;53.210;6.504;2023-04-24T09:16:06;15.93;;;8.93;;
52057;SDS011;38063;53.210;6.504;2023-04-24T09:18:31;13.45;;;8.43;;
52057;SDS011;38063;53.210;6.504;2023-04-24T09:21:01;16.15;;;7.60;;
52057;SDS011;38063;53.210;6.504;2023-04-24T09:23:30;14.52;;;7.18;;
52057;SDS011;38063;53.210;6.504;2023-04-24T09:25:57;12.27;;;6.80;;
52057;SDS011;38063;53.210;6.504;2023-04-24T09:28:46;14.35;;;7.18;;
52057;SDS011;38063;53.210;6.504;2023-04-24T09:31:14;13.02;;;7.10;;
52057;SDS011;38063;53.210;6.504;2023-04-24T09:36:29;12.18;;;6.43;;
52057;SDS011;38063;53.210;6.504;2023-04-24T09:39:01;14.30;;;6.80;;
52057;SDS011;38063;53.210;6.504;2023-04-24T09:41:29;14.30;;;6.15;;
52057;SDS011;38063;53.210;6.504;2023-04-24T09:43:55;13.82;;;5.72;;
52057;SDS011;38063;53.210;6.504;2023-04-24T09:46:28;12.98;;;5.60;;
52057;SDS011;38063;53.210;6.504;2023-04-24T09:48:55;14.60;;;6.38;;
52057;SDS011;38063;53.210;6.504;2023-04-24T09:51:32;13.90;;;5.65;;
52057;SDS011;38063;53.210;6.504;2023-04-24T09:54:00;16.00;;;5.28;;
52057;SDS011;38063;53.210;6.504;2023-04-24T09:56:26;12.73;;;4.57;;
52057;SDS011;38063;53.210;6.504;2023-04-24T09:58:52;6.65;;;3.88;;
52057;SDS011;38063;53.210;6.504;2023-04-24T10:01:29;9.00;;;4.38;;
52057;SDS011;38063;53.210;6.504;2023-04-24T10:03:55;8.57;;;4.10;;
52057;SDS011;38063;53.210;6.504;2023-04-24T10:06:21;11.05;;;4.28;;
52057;SDS011;38063;53.210;6.504;2023-04-24T10:08:47;9.82;;;3.63;;
52057;SDS011;38063;53.210;6.504;2023-04-24T10:11:15;8.25;;;3.08;;
52057;SDS011;38063;53.210;6.504;2023-04-24T10:13:42;7.80;;;3.30;;
52057;SDS011;38063;53.210;6.504;2023-04-24T10:16:08;6.25;;;3.10;;
52057;SDS011;38063;53.210;6.504;2023-04-24T10:18:35;8.55;;;3.13;;
52057;SDS011;38063;53.210;6.504;2023-04-24T10:21:01;9.18;;;2.90;;
52057;SDS011;38063;53.210;6.504;2023-04-24T10:23:27;7.30;;;2.65;;
52057;SDS011;38063;53.210;6.504;2023-04-24T10:25:55;10.52;;;2.95;;
52057;SDS011;38063;53.210;6.504;2023-04-24T10:28:21;11.35;;;2.95;;
52057;SDS011;38063;53.210;6.504;2023-04-24T10:30:49;6.80;;;3.13;;
52057;SDS011;38063;53.210;6.504;2023-04-24T10:33:15;10.43;;;3.15;;
52057;SDS011;38063;53.210;6.504;2023-04-24T10:35:43;7.68;;;2.53;;
52057;SDS011;38063;53.210;6.504;2023-04-24T10:38:14;8.38;;;2.60;;
52057;SDS011;38063;53.210;6.504;2023-04-24T10:40:43;9.07;;;3.05;;
52057;SDS011;38063;53.210;6.504;2023-04-24T10:43:09;9.45;;;2.92;;
52057;SDS011;38063;53.210;6.504;2023-04-24T10:45:36;9.57;;;2.95;;
52057;SDS011;38063;53.210;6.504;2023-04-24T10:48:03;7.78;;;2.80;;
52057;SDS011;38063;53.210;6.504;2023-04-24T10:55:43;8.13;;;2.40;;
52057;SDS011;38063;53.210;6.504;2023-04-24T10:58:15;8.35;;;2.40;;
52057;SDS011;38063;53.210;6.504;2023-04-24T11:00:56;10.18;;;2.40;;
52057;SDS011;38063;53.210;6.504;2023-04-24T11:03:24;9.30;;;2.55;;
52057;SDS011;38063;53.210;6.504;2023-04-24T11:06:01;7.45;;;1.88;;
52057;SDS011;38063;53.210;6.504;2023-04-24T11:08:43;10.57;;;2.72;;
52057;SDS011;38063;53.210;6.504;2023-04-24T11:16:21;7.60;;;2.70;;
52057;SDS011;38063;53.210;6.504;2023-04-24T11:19:09;10.40;;;2.47;;
52057;SDS011;38063;53.210;6.504;2023-04-24T11:21:48;7.80;;;2.20;;
52057;SDS011;38063;53.210;6.504;2023-04-24T11:27:23;7.57;;;2.88;;
52057;SDS011;38063;53.210;6.504;2023-04-24T11:29:46;9.40;;;2.22;;
52057;SDS011;38063;53.210;6.504;2023-04-24T11:32:23;7.38;;;2.05;;
52057;SDS011;38063;53.210;6.504;2023-04-24T11:37:26;4.90;;;1.95;;
52057;SDS011;38063;53.210;6.504;2023-04-24T11:39:53;7.63;;;2.38;;
52057;SDS011;38063;53.210;6.504;2023-04-24T11:42:21;8.63;;;2.15;;
52057;SDS011;38063;53.210;6.504;2023-04-24T11:44:48;8.07;;;1.88;;
52057;SDS011;38063;53.210;6.504;2023-04-24T11:47:16;7.20;;;2.47;;
52057;SDS011;38063;53.210;6.504;2023-04-24T11:49:42;6.15;;;1.63;;
52057;SDS011;38063;53.210;6.504;2023-04-24T11:52:08;8.07;;;1.70;;
52057;SDS011;38063;53.210;6.504;2023-04-24T11:54:33;8.90;;;1.98;;
52057;SDS011;38063;53.210;6.504;2023-04-24T11:56:59;7.78;;;2.15;;
52057;SDS011;38063;53.210;6.504;2023-04-24T11:59:34;8.23;;;1.67;;
52057;SDS011;38063;53.210;6.504;2023-04-24T12:02:01;6.78;;;1.55;;
52057;SDS011;38063;53.210;6.504;2023-04-24T12:04:37;7.28;;;1.80;;
52057;SDS011;38063;53.210;6.504;2023-04-24T12:07:06;5.28;;;1.80;;
52057;SDS011;38063;53.210;6.504;2023-04-24T12:09:43;9.60;;;1.60;;
52057;SDS011;38063;53.210;6.504;2023-04-24T12:12:10;5.00;;;1.52;;
52057;SDS011;38063;53.210;6.504;2023-04-24T12:14:44;6.28;;;1.85;;
52057;SDS011;38063;53.210;6.504;2023-04-24T12:17:34;5.15;;;1.40;;
52057;SDS011;38063;53.210;6.504;2023-04-24T12:20:06;4.80;;;1.65;;
52057;SDS011;38063;53.210;6.504;2023-04-24T12:22:51;4.93;;;1.40;;
52057;SDS011;38063;53.210;6.504;2023-04-24T12:25:25;5.93;;;1.42;;
52057;SDS011;38063;53.210;6.504;2023-04-24T12:27:53;8.68;;;1.58;;
52057;SDS011;38063;53.210;6.504;2023-04-24T12:30:28;3.45;;;1.27;;
52057;SDS011;38063;53.210;6.504;2023-04-24T12:32:56;3.10;;;1.50;;
52057;SDS011;38063;53.210;6.504;2023-04-24T12:35:23;5.32;;;1.38;;
52057;SDS011;38063;53.210;6.504;2023-04-24T12:37:50;2.50;;;1.30;;
52057;SDS011;38063;53.210;6.504;2023-04-24T12:40:17;4.57;;;1.40;;
52057;SDS011;38063;53.210;6.504;2023-04-24T12:42:44;5.10;;;1.38;;
52057;SDS011;38063;53.210;6.504;2023-04-24T12:45:12;5.03;;;1.27;;
52057;SDS011;38063;53.210;6.504;2023-04-24T12:47:39;7.55;;;1.60;;
52057;SDS011;38063;53.210;6.504;2023-04-24T12:50:12;5.78;;;1.63;;
52057;SDS011;38063;53.210;6.504;2023-04-24T12:52:40;3.33;;;1.20;;
52057;SDS011;38063;53.210;6.504;2023-04-24T12:55:07;5.07;;;1.10;;
52057;SDS011;38063;53.210;6.504;2023-04-24T12:57:34;6.90;;;2.03;;
52057;SDS011;38063;53.210;6.504;2023-04-24T13:00:02;6.18;;;1.20;;
52057;SDS011;38063;53.210;6.504;2023-04-24T13:02:32;2.92;;;1.10;;
52057;SDS011;38063;53.210;6.504;2023-04-24T13:04:59;4.43;;;1.30;;
52057;SDS011;38063;53.210;6.504;2023-04-24T13:07:25;3.88;;;1.63;;
52057;SDS011;38063;53.210;6.504;2023-04-24T13:09:52;6.97;;;1.30;;
52057;SDS011;38063;53.210;6.504;2023-04-24T13:12:19;3.75;;;1.00;;
52057;SDS011;38063;53.210;6.504;2023-04-24T13:14:45;5.57;;;1.20;;
52057;SDS011;38063;53.210;6.504;2023-04-24T13:17:11;11.20;;;1.42;;
52057;SDS011;38063;53.210;6.504;2023-04-24T13:19:41;5.43;;;1.30;;
52057;SDS011;38063;53.210;6.504;2023-04-24T13:22:08;7.35;;;1.45;;
52057;SDS011;38063;53.210;6.504;2023-04-24T13:24:35;4.18;;;1.50;;
52057;SDS011;38063;53.210;6.504;2023-04-24T13:27:03;7.13;;;1.60;;
52057;SDS011;38063;53.210;6.504;2023-04-24T13:29:29;4.10;;;1.20;;
52057;SDS011;38063;53.210;6.504;2023-04-24T13:31:55;6.57;;;0.85;;
52057;SDS011;38063;53.210;6.504;2023-04-24T13:34:21;2.53;;;0.90;;
52057;SDS011;38063;53.210;6.504;2023-04-24T13:36:53;2.88;;;0.82;;
52057;SDS011;38063;53.210;6.504;2023-04-24T13:39:21;2.95;;;0.63;;
52057;SDS011;38063;53.210;6.504;2023-04-24T13:41:47;2.75;;;0.57;;
52057;SDS011;38063;53.210;6.504;2023-04-24T13:44:13;2.72;;;0.70;;
52057;SDS011;38063;53.210;6.504;2023-04-24T13:46:40;2.80;;;0.65;;
52057;SDS011;38063;53.210;6.504;2023-04-24T13:49:06;4.05;;;0.77;;
52057;SDS011;38063;53.210;6.504;2023-04-24T13:51:33;3.53;;;0.95;;
52057;SDS011;38063;53.210;6.504;2023-04-24T13:53:58;2.90;;;0.85;;
52057;SDS011;38063;53.210;6.504;2023-04-24T13:56:25;4.53;;;0.90;;
52057;SDS011;38063;53.210;6.504;2023-04-24T13:58:51;2.50;;;1.25;;
52057;SDS011;38063;53.210;6.504;2023-04-24T14:01:18;3.80;;;1.23;;
52057;SDS011;38063;53.210;6.504;2023-04-24T14:03:45;6.25;;;1.58;;
52057;SDS011;38063;53.210;6.504;2023-04-24T14:06:11;5.68;;;1.60;;
52057;SDS011;38063;53.210;6.504;2023-04-24T14:08:37;8.70;;;1.70;;
52057;SDS011;38063;53.210;6.504;2023-04-24T14:11:02;9.60;;;1.90;;
52057;SDS011;38063;53.210;6.504;2023-04-24T14:13:28;9.07;;;2.22;;
52057;SDS011;38063;53.210;6.504;2023-04-24T14:15:54;9.63;;;2.15;;
52057;SDS011;38063;53.210;6.504;2023-04-24T14:18:20;8.48;;;1.75;;
52057;SDS011;38063;53.210;6.504;2023-04-24T14:20:46;9.18;;;2.05;;
52057;SDS011;38063;53.210;6.504;2023-04-24T14:23:11;8.98;;;1.83;;
52057;SDS011;38063;53.210;6.504;2023-04-24T14:25:37;7.05;;;1.85;;
52057;SDS011;38063;53.210;6.504;2023-04-24T14:28:03;11.45;;;2.30;;
52057;SDS011;38063;53.210;6.504;2023-04-24T14:30:30;8.82;;;2.20;;
52057;SDS011;38063;53.210;6.504;2023-04-24T14:32:56;6.10;;;2.05;;
52057;SDS011;38063;53.210;6.504;2023-04-24T14:35:21;5.95;;;2.05;;
52057;SDS011;38063;53.210;6.504;2023-04-24T14:37:47;9.57;;;1.88;;
52057;SDS011;38063;53.210;6.504;2023-04-24T14:40:14;8.32;;;2.10;;
52057;SDS011;38063;53.210;6.504;2023-04-24T14:42:40;5.97;;;2.05;;
52057;SDS011;38063;53.210;6.504;2023-04-24T14:45:05;6.57;;;2.60;;
52057;SDS011;38063;53.210;6.504;2023-04-24T14:47:32;5.03;;;1.90;;
52057;SDS011;38063;53.210;6.504;2023-04-24T14:49:58;7.00;;;2.10;;
52057;SDS011;38063;53.210;6.504;2023-04-24T14:52:24;4.10;;;1.83;;
52057;SDS011;38063;53.210;6.504;2023-04-24T14:54:50;5.85;;;2.13;;
52057;SDS011;38063;53.210;6.504;2023-04-24T14:57:15;9.02;;;2.42;;
52057;SDS011;38063;53.210;6.504;2023-04-24T14:59:41;8.15;;;2.30;;